createdAt,value
2023-04-16T00:02:32.684Z,33.27
2023-04-16T00:06:35.430Z,36.67
2023-04-16T00:10:38.367Z,35.73
2023-04-16T00:14:43.414Z,35.93
2023-04-16T00:18:46.580Z,42.27
2023-04-16T00:22:49.361Z,40.60
2023-04-16T00:26:52.018Z,40.37
2023-04-16T00:30:56.630Z,43.33
2023-04-16T00:34:59.374Z,34.50
2023-04-16T00:39:02.102Z,40.57
2023-04-16T00:43:04.857Z,50.63
2023-04-16T00:47:09.714Z,43.30
2023-04-16T00:51:12.711Z,50.17
2023-04-16T00:55:18.559Z,46.30
2023-04-16T00:59:22.314Z,53.47
2023-04-16T01:03:35.941Z,51.30
2023-04-16T01:07:38.692Z,53.97
2023-04-16T01:11:41.418Z,57.00
2023-04-16T01:15:44.186Z,69.97
2023-04-16T01:19:48.251Z,56.33
2023-04-16T01:23:52.282Z,52.93
2023-04-16T01:27:57.322Z,66.23
2023-04-16T01:31:59.965Z,65.47
2023-04-16T01:36:22.912Z,67.60
2023-04-16T01:40:27.029Z,54.43
2023-04-16T01:44:30.866Z,63.27
2023-04-16T01:48:34.030Z,61.57
2023-04-16T01:52:36.983Z,55.57
2023-04-16T01:56:41.107Z,67.37
2023-04-16T02:00:44.038Z,48.13
2023-04-16T02:04:47.315Z,57.97
2023-04-16T02:08:50.053Z,50.13
2023-04-16T02:12:54.065Z,57.13
2023-04-16T02:16:57.276Z,51.13
2023-04-16T02:21:12.608Z,49.37
2023-04-16T02:25:16.054Z,58.23
2023-04-16T02:29:21.229Z,56.03
2023-04-16T02:33:31.782Z,47.67
2023-04-16T02:37:37.702Z,58.77
2023-04-16T02:41:41.016Z,58.03
2023-04-16T02:45:45.124Z,45.07
2023-04-16T02:49:47.855Z,57.03
2023-04-16T02:53:50.582Z,51.77
2023-04-16T02:57:53.826Z,61.17
2023-04-16T03:01:58.053Z,49.63
2023-04-16T03:06:00.998Z,48.57
2023-04-16T03:10:03.828Z,52.17
2023-04-16T03:14:06.676Z,52.27
2023-04-16T03:18:10.683Z,49.90
2023-04-16T03:22:13.413Z,54.87
2023-04-16T03:26:16.458Z,52.53
2023-04-16T03:30:19.219Z,49.40
2023-04-16T03:34:23.380Z,51.17
2023-04-16T03:38:26.798Z,58.57
2023-04-16T03:42:32.137Z,54.03
2023-04-16T03:46:35.016Z,54.30
2023-04-16T03:50:39.122Z,52.63
2023-04-16T03:54:44.569Z,49.53
2023-04-16T03:59:00.175Z,54.90
2023-04-16T04:03:04.178Z,50.97
2023-04-16T04:07:09.243Z,53.83
2023-04-16T04:11:12.282Z,55.60
2023-04-16T04:15:17.460Z,58.63
2023-04-16T04:19:20.208Z,51.97
2023-04-16T04:23:25.541Z,52.20
2023-04-16T04:27:28.347Z,48.47
2023-04-16T04:31:31.192Z,50.80
2023-04-16T04:35:34.058Z,52.83
2023-04-16T04:39:39.177Z,50.43
2023-04-16T04:43:42.405Z,48.97
2023-04-16T04:47:45.638Z,51.87
2023-04-16T04:51:49.451Z,45.87
2023-04-16T04:55:55.695Z,44.77
2023-04-16T05:00:03.773Z,45.50
2023-04-16T05:04:14.999Z,43.43
2023-04-16T05:08:17.825Z,47.97
2023-04-16T05:12:21.827Z,47.10
2023-04-16T05:16:24.705Z,49.47
2023-04-16T05:20:27.456Z,49.80
2023-04-16T05:24:30.187Z,51.60
2023-04-16T05:28:34.222Z,50.30
2023-04-16T05:32:39.888Z,41.93
2023-04-16T05:36:42.661Z,43.90
2023-04-16T05:40:45.374Z,46.53
2023-04-16T05:44:49.518Z,37.63
2023-04-16T05:48:52.281Z,44.33
2023-04-16T05:52:54.965Z,39.67
2023-04-16T05:56:57.730Z,45.47
2023-04-16T06:01:02.101Z,46.07
2023-04-16T06:05:05.627Z,54.30
2023-04-16T06:09:08.507Z,51.53
2023-04-16T06:13:11.385Z,47.50
2023-04-16T06:17:15.508Z,39.90
2023-04-16T06:21:18.294Z,43.30
2023-04-16T06:25:21.025Z,43.63
2023-04-16T06:29:33.540Z,48.23
2023-04-16T06:33:44.273Z,43.57
2023-04-16T06:37:47.187Z,46.03
2023-04-16T06:41:49.994Z,42.73
2023-04-16T06:45:53.868Z,42.30
2023-04-16T06:49:57.883Z,44.53
2023-04-16T06:54:01.021Z,44.13
2023-04-16T06:58:03.723Z,43.10
2023-04-16T07:02:06.623Z,46.87
2023-04-16T07:06:11.326Z,44.43
2023-04-16T07:10:14.023Z,44.63
2023-04-16T07:14:16.784Z,45.90
2023-04-16T07:18:20.688Z,46.40
2023-04-16T07:22:24.999Z,42.80
2023-04-16T07:26:27.761Z,42.57
2023-04-16T07:30:34.232Z,45.17
2023-04-16T07:34:36.962Z,40.50
2023-04-16T07:38:41.226Z,43.30
2023-04-16T07:42:44.405Z,38.20
2023-04-16T07:46:47.798Z,43.47
2023-04-16T07:50:51.113Z,43.57
2023-04-16T07:54:55.204Z,38.77
2023-04-16T07:59:07.994Z,43.23
2023-04-16T08:03:18.259Z,44.87
2023-04-16T08:07:21.133Z,40.73
2023-04-16T08:11:25.307Z,41.07
2023-04-16T08:15:28.171Z,43.37
2023-04-16T08:19:31.146Z,40.97
2023-04-16T08:23:33.921Z,41.23
2023-04-16T08:27:38.135Z,37.13
2023-04-16T08:31:41.185Z,38.47
2023-04-16T08:35:43.916Z,38.03
2023-04-16T08:39:46.688Z,35.20
2023-04-16T08:43:52.122Z,38.20
2023-04-16T08:47:55.029Z,35.77
2023-04-16T08:51:58.215Z,33.57
2023-04-16T08:56:04.752Z,34.77
2023-04-16T09:00:10.897Z,31.47
2023-04-16T09:04:15.819Z,30.37
2023-04-16T09:08:19.156Z,29.60
2023-04-16T09:12:24.959Z,28.20
2023-04-16T09:16:34.485Z,27.10
2023-04-16T09:20:37.360Z,29.33
2023-04-16T09:24:40.080Z,27.27
2023-04-16T09:28:44.597Z,27.13
2023-04-16T09:32:49.257Z,28.67
2023-04-16T09:36:52.080Z,26.60
2023-04-16T09:41:07.211Z,27.47
2023-04-16T09:45:12.495Z,26.60
2023-04-16T09:49:18.583Z,25.37
2023-04-16T09:53:25.141Z,26.57
2023-04-16T09:57:27.858Z,25.90
2023-04-16T10:01:31.919Z,23.67
2023-04-16T10:05:37.068Z,22.50
2023-04-16T10:09:40.736Z,22.93
2023-04-16T10:13:43.569Z,23.47
2023-04-16T10:17:46.791Z,23.13
2023-04-16T10:21:51.031Z,22.70
2023-04-16T10:25:57.472Z,23.17
2023-04-16T10:30:01.367Z,23.73
2023-04-16T10:34:04.651Z,21.37
2023-04-16T10:42:36.394Z,22.93
2023-04-16T10:46:40.588Z,19.53
2023-04-16T10:50:43.261Z,20.83
2023-04-16T10:54:47.927Z,20.17
2023-04-16T10:58:54.825Z,19.37
2023-04-16T11:02:57.688Z,20.87
2023-04-16T11:07:08.899Z,19.07
2023-04-16T11:11:11.667Z,19.63
2023-04-16T11:15:16.956Z,19.13
2023-04-16T11:19:19.900Z,22.57
2023-04-16T11:23:22.638Z,19.63
2023-04-16T11:27:26.357Z,18.77
2023-04-16T11:31:30.457Z,17.97
2023-04-16T11:35:33.308Z,19.17
2023-04-16T11:39:49.012Z,19.33
2023-04-16T11:43:51.692Z,18.83
2023-04-16T11:47:57.771Z,18.70
2023-04-16T11:52:00.926Z,20.03
2023-04-16T11:56:04.722Z,22.03
2023-04-16T12:00:10.969Z,18.27
2023-04-16T12:04:19.678Z,19.83
2023-04-16T12:08:31.687Z,19.13
2023-04-16T12:12:35.349Z,17.90
2023-04-16T12:16:38.162Z,20.00
2023-04-16T12:20:42.840Z,17.47
2023-04-16T12:24:45.626Z,18.90
2023-04-16T12:28:48.375Z,18.73
2023-04-16T12:32:52.749Z,18.40
2023-04-16T12:37:09.406Z,18.07
2023-04-16T12:41:12.207Z,19.23
2023-04-16T12:45:15.013Z,19.57
2023-04-16T12:49:17.655Z,20.50
2023-04-16T12:53:21.731Z,23.60
2023-04-16T12:57:28.498Z,17.57
2023-04-16T13:01:31.424Z,19.30
2023-04-16T13:05:34.123Z,21.10
2023-04-16T13:09:39.802Z,22.17
2023-04-16T13:13:42.826Z,19.80
2023-04-16T13:17:46.112Z,20.33
2023-04-16T13:21:48.900Z,19.03
2023-04-16T13:25:52.942Z,19.17
2023-04-16T13:29:55.809Z,19.07
2023-04-16T13:33:58.703Z,19.03
2023-04-16T13:38:03.809Z,19.60
2023-04-16T13:42:07.837Z,18.70
2023-04-16T13:46:10.576Z,16.10
2023-04-16T13:50:13.473Z,18.43
2023-04-16T13:54:16.158Z,18.43
2023-04-16T13:58:20.534Z,17.10
2023-04-16T14:02:24.099Z,18.00
2023-04-16T14:06:26.975Z,20.20
2023-04-16T14:10:30.043Z,16.23
2023-04-16T14:14:34.256Z,16.63
2023-04-16T14:18:41.058Z,15.77
2023-04-16T14:22:44.234Z,21.00
2023-04-16T14:26:47.102Z,15.87
2023-04-16T14:30:51.342Z,14.93
2023-04-16T14:34:54.138Z,16.27
2023-04-16T14:38:56.827Z,17.53
2023-04-16T14:42:59.858Z,19.03
2023-04-16T14:47:03.948Z,19.80
2023-04-16T14:51:07.258Z,15.17
2023-04-16T14:55:10.029Z,16.87
2023-04-16T14:59:12.892Z,16.67
2023-04-16T15:03:17.234Z,14.13
2023-04-16T15:07:20.958Z,16.43
2023-04-16T15:11:23.749Z,14.73
2023-04-16T15:15:26.428Z,17.30
2023-04-16T15:19:30.499Z,19.10
2023-04-16T15:23:33.604Z,18.17
2023-04-16T15:27:36.485Z,15.93
2023-04-16T15:31:39.214Z,16.33
2023-04-16T15:35:43.254Z,16.20
2023-04-16T15:39:46.241Z,14.43
2023-04-16T15:43:49.589Z,14.93
2023-04-16T15:47:52.346Z,15.07
2023-04-16T15:51:56.919Z,16.27
2023-04-16T15:55:59.735Z,15.20
2023-04-16T16:00:07.281Z,16.13
2023-04-16T16:04:10.623Z,19.03
2023-04-16T16:08:15.374Z,17.47
2023-04-16T16:12:18.501Z,20.30
2023-04-16T16:16:21.750Z,15.77
2023-04-16T16:20:24.948Z,20.27
2023-04-16T16:24:29.104Z,16.47
2023-04-16T16:28:31.794Z,16.43
2023-04-16T16:32:34.630Z,15.73
2023-04-16T16:36:38.012Z,19.47
2023-04-16T16:40:42.045Z,16.40
2023-04-16T16:44:44.775Z,17.87
2023-04-16T16:48:47.504Z,16.80
2023-04-16T16:52:50.172Z,15.63
2023-04-16T16:56:54.492Z,15.80
2023-04-16T17:00:57.277Z,15.60
2023-04-16T17:05:00.158Z,16.47
2023-04-16T17:09:03.146Z,14.57
2023-04-16T17:13:07.271Z,17.23
2023-04-16T17:17:09.978Z,17.43
2023-04-16T17:21:14.023Z,16.40
2023-04-16T17:25:17.908Z,20.40
2023-04-16T17:29:25.857Z,16.70
2023-04-16T17:33:28.666Z,16.50
2023-04-16T17:37:31.446Z,17.77
2023-04-16T17:41:34.189Z,14.93
2023-04-16T17:45:38.254Z,15.97
2023-04-16T17:49:41.227Z,16.07
2023-04-16T17:53:44.651Z,15.80
2023-04-16T17:57:47.514Z,15.57
2023-04-16T18:01:51.734Z,16.63
2023-04-16T18:05:54.522Z,18.33
2023-04-16T18:09:57.239Z,16.73
2023-04-16T18:13:59.940Z,18.87
2023-04-16T18:18:03.985Z,16.87
2023-04-16T18:22:06.646Z,19.17
2023-04-16T18:26:09.483Z,17.60
2023-04-16T18:34:22.533Z,19.80
2023-04-16T18:38:25.607Z,18.23
2023-04-16T18:42:29.176Z,18.83
2023-04-16T18:46:31.903Z,16.93
2023-04-16T18:50:36.277Z,17.77
2023-04-16T18:54:38.936Z,16.53
2023-04-16T18:58:41.590Z,17.17
2023-04-16T19:02:44.534Z,19.50
2023-04-16T19:06:48.759Z,20.07
2023-04-16T19:10:51.609Z,21.50
2023-04-16T19:14:54.291Z,20.67
2023-04-16T19:18:57.119Z,21.50
2023-04-16T19:23:01.658Z,19.90
2023-04-16T19:27:04.387Z,20.77
2023-04-16T19:31:07.206Z,22.23
2023-04-16T19:35:10.714Z,28.37
2023-04-16T19:39:14.796Z,22.93
2023-04-16T19:43:17.471Z,24.27
2023-04-16T19:47:20.498Z,26.17
2023-04-16T19:51:23.291Z,25.73
2023-04-16T19:55:27.322Z,29.43
2023-04-16T19:59:32.171Z,25.50
2023-04-16T20:03:35.048Z,26.77
2023-04-16T20:07:37.798Z,27.40
2023-04-16T20:11:41.926Z,26.13
2023-04-16T20:15:44.938Z,29.13
2023-04-16T20:19:49.660Z,27.93
2023-04-16T20:23:52.402Z,31.87
2023-04-16T20:27:57.677Z,29.47
2023-04-16T20:32:00.457Z,26.53
2023-04-16T20:36:03.174Z,29.17
2023-04-16T20:40:08.851Z,26.10
2023-04-16T20:44:18.126Z,29.43
2023-04-16T20:48:20.900Z,28.03
2023-04-16T20:52:23.618Z,34.50
2023-04-16T20:56:26.411Z,29.00
2023-04-16T21:00:30.544Z,26.60
2023-04-16T21:04:33.435Z,29.10
2023-04-16T21:08:36.496Z,30.63
2023-04-16T21:12:39.318Z,27.97
2023-04-16T21:16:43.363Z,33.50
2023-04-16T21:20:46.111Z,32.03
2023-04-16T21:24:48.846Z,31.70
2023-04-16T21:28:52.601Z,33.97
2023-04-16T21:32:58.002Z,34.50
2023-04-16T21:37:00.832Z,33.10
2023-04-16T21:41:03.537Z,34.03
2023-04-16T21:45:07.539Z,36.70
2023-04-16T21:49:11.772Z,35.03
2023-04-16T21:53:14.644Z,33.97
2023-04-16T21:57:17.382Z,37.47
2023-04-16T22:01:20.175Z,34.37
2023-04-16T22:05:24.205Z,33.50
2023-04-16T22:09:26.839Z,35.63
2023-04-16T22:13:32.121Z,37.37
2023-04-16T22:17:35.231Z,41.73
2023-04-16T22:21:48.313Z,35.87
2023-04-16T22:25:51.096Z,36.33
2023-04-16T22:29:53.732Z,34.27
2023-04-16T22:33:56.490Z,37.83
2023-04-16T22:38:00.541Z,40.37
2023-04-16T22:42:03.426Z,38.97
2023-04-16T22:46:07.951Z,38.30
2023-04-16T22:50:12.162Z,38.73
2023-04-16T22:54:16.353Z,41.37
2023-04-16T22:58:19.009Z,38.97
2023-04-16T23:02:22.075Z,39.03
2023-04-16T23:06:24.929Z,40.87
2023-04-16T23:10:28.977Z,36.80
2023-04-16T23:14:31.641Z,40.23
2023-04-16T23:18:34.517Z,46.53
2023-04-16T23:22:37.520Z,38.33
2023-04-16T23:26:41.599Z,45.33
2023-04-16T23:30:44.256Z,44.03
2023-04-16T23:34:46.971Z,40.57
2023-04-16T23:38:49.746Z,39.77
2023-04-16T23:42:53.839Z,41.37
2023-04-16T23:46:57.222Z,45.20
2023-04-16T23:51:00.174Z,43.13
2023-04-16T23:55:03.001Z,45.93
2023-04-16T23:59:08.593Z,45.03
